Time;durP1;ratioP1;P1;durP2;ratioP2;P2;SDS_P1;SDS_P2;PMS_P1;PMS_P2;Temp;Humidity;BMP_temperature;BMP_pressure;BME280_temperature;BME280_humidity;BME280_pressure;Samples;Min_cycle;Max_cycle;Signal;HPM_P1;HPM_P2
2022/04/07 00:00:55;;;;;;;8.40;3.10;;;;;;;9.43;86.90;99179.78;5045629;28;20032;-63
2022/04/07 00:03:20;;;;;;;6.93;2.78;;;;;;;9.39;86.92;99181.44;5044984;28;20025;-63
2022/04/07 00:05:45;;;;;;;6.90;2.95;;;;;;;9.28;87.41;99162.19;5045292;28;20032;-64
2022/04/07 00:08:11;;;;;;;7.28;2.70;;;;;;;9.31;87.64;99166.28;5043634;28;20072;-63
2022/04/07 00:10:36;;;;;;;6.03;2.65;;;;;;;9.33;87.75;99147.69;5042865;28;20037;-63
2022/04/07 00:13:03;;;;;;;9.60;3.00;;;;;;;9.24;87.63;99150.09;5043956;28;20127;-63
2022/04/07 00:15:29;;;;;;;10.10;2.75;;;;;;;9.13;88.60;99142.91;5045047;28;20025;-63
2022/04/07 00:17:54;;;;;;;9.75;3.67;;;;;;;9.19;88.37;99136.38;5045029;28;20033;-63
2022/04/07 00:20:20;;;;;;;6.72;2.80;;;;;;;9.09;88.07;99137.13;5044991;28;20031;-63
2022/04/07 00:22:47;;;;;;;12.02;2.88;;;;;;;9.12;87.21;99126.72;5044732;28;20025;-63
2022/04/07 00:25:13;;;;;;;9.65;2.95;;;;;;;9.07;87.82;99135.72;5041952;28;20029;-64
2022/04/07 00:27:38;;;;;;;9.10;3.83;;;;;;;9.14;87.42;99132.78;5044640;28;20388;-63
2022/04/07 00:30:04;;;;;;;10.35;3.30;;;;;;;9.03;88.55;99123.66;5044574;28;20031;-64
2022/04/07 00:32:30;;;;;;;7.43;2.80;;;;;;;9.14;88.32;99114.41;5041550;28;20124;-63
2022/04/07 00:34:56;;;;;;;9.38;2.88;;;;;;;9.04;88.50;99117.91;5044610;28;20755;-62
2022/04/07 00:37:25;;;;;;;12.07;3.15;;;;;;;8.98;88.61;99109.94;5044242;28;20021;-62
2022/04/07 00:39:51;;;;;;;9.30;2.70;;;;;;;8.93;89.07;99105.25;5043915;28;20372;-62
2022/04/07 00:42:17;;;;;;;7.90;2.78;;;;;;;8.94;88.85;99100.59;5042481;28;20120;-62
2022/04/07 00:44:45;;;;;;;7.47;3.40;;;;;;;8.94;89.10;99097.84;5044488;28;20154;-62
2022/04/07 00:47:11;;;;;;;11.75;2.92;;;;;;;8.94;88.72;99089.63;5043484;28;20467;-62
2022/04/07 00:49:36;;;;;;;9.43;2.80;;;;;;;8.92;88.77;99076.22;5044496;28;20039;-62
2022/04/07 00:52:02;;;;;;;10.40;2.53;;;;;;;8.91;89.00;99084.66;5043251;28;20072;-63
2022/04/07 00:54:29;;;;;;;12.65;3.30;;;;;;;8.95;88.82;99078.41;5043127;28;20439;-62
2022/04/07 00:56:55;;;;;;;7.88;2.53;;;;;;;8.92;89.60;99070.75;5043065;28;20511;-62
2022/04/07 00:59:22;;;;;;;10.60;3.22;;;;;;;8.93;88.58;99060.63;5043068;28;20051;-62
2022/04/07 01:01:48;;;;;;;8.52;3.00;;;;;;;8.85;89.61;99067.38;5044261;28;20478;-63
2022/04/07 01:04:14;;;;;;;12.07;3.72;;;;;;;8.86;89.70;99063.56;5044073;28;20021;-62
2022/04/07 01:06:41;;;;;;;10.35;3.60;;;;;;;8.89;89.09;99038.41;5041560;28;20025;-65
2022/04/07 01:09:06;;;;;;;11.00;3.90;;;;;;;8.93;89.29;99042.28;5043377;28;20036;-62
2022/04/07 01:11:34;;;;;;;11.75;3.55;;;;;;;8.86;90.04;99051.78;5042708;28;20041;-62
2022/04/07 01:13:59;;;;;;;10.18;3.85;;;;;;;8.82;90.17;99044.13;5044154;28;20698;-63
2022/04/07 01:16:27;;;;;;;11.48;3.83;;;;;;;8.78;90.74;99039.44;5041773;28;20024;-62
2022/04/07 01:18:55;;;;;;;11.25;3.70;;;;;;;8.80;90.56;99037.25;5044068;28;20446;-62
2022/04/07 01:21:21;;;;;;;13.95;4.40;;;;;;;8.89;90.32;99038.41;5042273;28;20047;-62
2022/04/07 01:23:55;;;;;;;10.88;3.75;;;;;;;8.79;90.63;99030.94;5043506;28;20135;-62
2022/04/07 01:26:21;;;;;;;8.93;3.58;;;;;;;8.79;90.55;99030.94;5041701;28;20094;-62
2022/04/07 01:28:50;;;;;;;8.98;3.30;;;;;;;8.79;90.78;99032.88;5043525;28;20135;-62
2022/04/07 01:31:15;;;;;;;10.77;3.70;;;;;;;8.77;91.30;99027.66;5041695;28;20523;-62
2022/04/07 01:33:42;;;;;;;9.55;3.75;;;;;;;8.76;91.00;99015.03;5043302;28;20070;-63
2022/04/07 01:36:08;;;;;;;8.13;3.67;;;;;;;8.79;90.77;99013.69;5043781;28;20113;-62
2022/04/07 01:38:34;;;;;;;14.63;5.00;;;;;;;8.78;90.74;99006.59;5040241;28;20111;-62
2022/04/07 01:41:00;;;;;;;11.15;3.60;;;;;;;8.82;90.22;98996.75;5042461;28;20127;-62
2022/04/07 01:43:25;;;;;;;12.88;3.97;;;;;;;8.80;90.41;98991.53;5041983;28;20029;-62
2022/04/07 01:45:51;;;;;;;9.07;3.42;;;;;;;8.80;90.19;98990.72;5042704;28;20444;-62
2022/04/07 01:48:19;;;;;;;11.35;3.58;;;;;;;8.80;89.93;98983.31;5042484;28;20032;-62
2022/04/07 01:50:45;;;;;;;11.85;3.80;;;;;;;8.82;89.67;98974.84;5043109;28;20025;-63
2022/04/07 01:53:12;;;;;;;10.00;3.85;;;;;;;8.77;90.23;98972.91;5025663;28;20391;-64
2022/04/07 01:55:38;;;;;;;10.90;3.88;;;;;;;8.80;89.51;98974.28;5041990;28;20028;-62
2022/04/07 01:58:04;;;;;;;9.60;3.60;;;;;;;8.88;88.91;98967.50;5042846;28;20388;-62
2022/04/07 02:00:30;;;;;;;8.45;3.25;;;;;;;8.93;88.10;98967.53;5039720;28;20530;-63
2022/04/07 02:02:55;;;;;;;9.30;3.75;;;;;;;8.91;88.40;98950.53;5042988;28;20048;-62
2022/04/07 02:05:20;;;;;;;11.32;4.10;;;;;;;8.94;87.76;98948.09;5042298;28;20025;-62
2022/04/07 02:07:46;;;;;;;9.70;3.35;;;;;;;8.99;87.27;98945.38;5041628;28;20029;-62
2022/04/07 02:10:13;;;;;;;9.02;3.38;;;;;;;9.07;87.28;98949.50;5041801;28;20024;-64
2022/04/07 02:12:41;;;;;;;10.68;3.33;;;;;;;9.07;87.44;98941.28;5043108;28;20048;-62
2022/04/07 02:15:07;;;;;;;13.40;4.15;;;;;;;9.08;87.12;98945.69;5043569;28;20021;-62
2022/04/07 02:17:33;;;;;;;11.30;3.50;;;;;;;9.09;86.92;98937.19;5041688;28;20126;-62
2022/04/07 02:19:59;;;;;;;10.88;3.33;;;;;;;9.01;87.82;98936.88;5042713;28;20542;-63
2022/04/07 02:22:28;;;;;;;12.13;3.50;;;;;;;9.00;88.12;98925.09;5041986;28;20036;-62
2022/04/07 02:24:54;;;;;;;9.23;3.83;;;;;;;8.96;87.61;98921.25;5042476;28;20035;-62
2022/04/07 02:27:20;;;;;;;12.98;4.32;;;;;;;8.97;88.08;98916.59;5040145;28;20814;-62
2022/04/07 02:29:45;;;;;;;10.45;3.78;;;;;;;9.06;87.17;98917.72;5042016;28;20033;-62
2022/04/07 02:32:13;;;;;;;10.23;3.53;;;;;;;9.02;87.68;98922.94;5042844;28;21974;-62
2022/04/07 02:34:39;;;;;;;;;;;;;;;9.14;87.31;98925.44;5042127;28;20029;-62
2022/04/07 02:37:04;;;;;;;11.32;3.35;;;;;;;9.01;87.54;98909.50;5042169;28;19913;-62
2022/04/07 02:39:30;;;;;;;12.30;3.50;;;;;;;9.09;86.73;98906.25;5042248;28;20740;-62
2022/04/07 02:41:55;;;;;;;13.02;3.17;;;;;;;9.13;86.10;98909.28;5042112;28;20108;-62
2022/04/07 02:44:21;;;;;;;13.45;4.30;;;;;;;9.08;86.70;98902.69;5042948;28;20097;-62
2022/04/07 02:46:46;;;;;;;12.50;3.25;;;;;;;9.07;86.51;98902.94;5041740;28;20108;-62
2022/04/07 02:49:11;;;;;;;10.18;3.30;;;;;;;9.02;86.31;98887.34;5042415;28;20037;-63
2022/04/07 02:51:38;;;;;;;12.38;3.67;;;;;;;9.04;85.72;98881.59;5042727;28;20020;-63
2022/04/07 02:54:03;;;;;;;13.68;3.30;;;;;;;9.17;84.67;98869.28;5047987;22;20072;-63
2022/04/07 02:56:28;;;;;;;15.38;3.20;;;;;;;9.14;84.91;98858.91;5042077;28;20833;-62
2022/04/07 02:58:57;;;;;;;11.10;3.10;;;;;;;9.10;84.32;98859.41;5042797;28;20033;-62
2022/04/07 03:01:23;;;;;;;12.82;3.63;;;;;;;9.10;84.69;98839.44;5042724;28;20035;-62
2022/04/07 03:03:49;;;;;;;13.23;3.17;;;;;;;9.13;84.90;98835.34;5041125;28;20040;-62
2022/04/07 03:06:15;;;;;;;15.95;3.97;;;;;;;9.11;85.11;98838.34;5045108;28;20108;-62
2022/04/07 03:08:40;;;;;;;11.73;3.33;;;;;;;9.26;83.36;98826.59;5047057;28;20029;-62
2022/04/07 03:11:08;;;;;;;10.27;3.13;;;;;;;9.29;83.23;98834.28;5045188;28;20028;-63
2022/04/07 03:13:33;;;;;;;14.48;3.35;;;;;;;9.31;83.35;98826.59;5046086;28;20021;-62
2022/04/07 03:15:59;;;;;;;9.82;3.58;;;;;;;9.33;83.75;98813.47;5046576;28;20484;-63
2022/04/07 03:18:24;;;;;;;12.98;3.58;;;;;;;9.32;83.30;98812.63;5044584;28;20495;-62
2022/04/07 03:20:49;;;;;;;11.65;3.50;;;;;;;9.27;83.62;98798.91;5046291;28;20041;-62
2022/04/07 03:23:15;;;;;;;11.18;3.67;;;;;;;9.27;83.28;98785.22;5045227;28;20021;-63
2022/04/07 03:25:40;;;;;;;12.95;3.83;;;;;;;9.35;82.45;98792.91;5045346;28;20025;-63
2022/04/07 03:28:06;;;;;;;13.25;3.40;;;;;;;9.41;81.78;98781.94;5046232;28;20028;-62
2022/04/07 03:30:32;;;;;;;11.35;3.42;;;;;;;9.41;81.92;98785.50;5046100;28;20544;-62
2022/04/07 03:32:58;;;;;;;16.67;3.60;;;;;;;9.39;82.57;98789.63;5044489;28;20770;-62
2022/04/07 03:35:23;;;;;;;13.15;3.53;;;;;;;9.38;82.47;98777.84;5046525;28;20021;-62
2022/04/07 03:37:49;;;;;;;13.23;3.10;;;;;;;9.41;81.70;98774.56;5045835;28;20059;-62
2022/04/07 03:40:14;;;;;;;12.93;3.08;;;;;;;9.51;81.05;98765.50;5044366;28;20460;-63
2022/04/07 03:42:39;;;;;;;11.18;3.78;;;;;;;9.51;81.56;98787.44;5045277;28;20037;-63
2022/04/07 03:45:05;;;;;;;13.07;3.00;;;;;;;9.44;81.27;98767.72;5046179;28;20029;-62
2022/04/07 03:47:31;;;;;;;13.10;3.10;;;;;;;9.49;80.70;98754.00;5045383;28;20450;-62
2022/04/07 03:49:56;;;;;;;13.38;3.58;;;;;;;9.48;81.00;98742.22;5045582;28;20142;-63
2022/04/07 03:52:21;;;;;;;9.32;3.38;;;;;;;9.47;81.71;98743.31;5044885;28;20029;-62
2022/04/07 03:54:47;;;;;;;8.98;3.13;;;;;;;9.50;80.78;98759.22;5044877;28;20466;-62
2022/04/07 03:57:12;;;;;;;9.70;2.85;;;;;;;9.46;81.66;98741.66;5043590;28;20024;-63
2022/04/07 03:59:39;;;;;;;12.75;3.35;;;;;;;9.48;81.98;98731.28;5046201;28;20425;-62
2022/04/07 04:02:06;;;;;;;15.68;3.22;;;;;;;9.47;81.30;98742.50;5044089;28;20041;-62
2022/04/07 04:04:31;;;;;;;13.75;3.78;;;;;;;9.30;82.86;98726.34;5045577;28;20140;-62
2022/04/07 04:06:57;;;;;;;13.00;3.20;;;;;;;9.45;81.87;98709.06;5044808;28;20120;-62
2022/04/07 04:09:22;;;;;;;13.70;3.80;;;;;;;9.38;82.02;98722.22;5044978;28;20021;-62
2022/04/07 04:11:48;;;;;;;13.60;3.72;;;;;;;9.38;81.99;98694.81;5044548;28;20035;-63
2022/04/07 04:14:13;;;;;;;11.77;3.95;;;;;;;9.36;81.42;98692.38;5040170;28;20049;-62
2022/04/07 04:16:38;;;;;;;13.18;3.45;;;;;;;9.36;81.75;98678.66;5043724;28;20023;-62
2022/04/07 04:19:04;;;;;;;8.15;3.17;;;;;;;9.34;81.71;98654.28;5044238;28;20028;-62
2022/04/07 04:21:29;;;;;;;9.98;3.20;;;;;;;9.32;81.71;98640.03;5045068;28;20041;-62
2022/04/07 04:23:54;;;;;;;9.32;2.92;;;;;;;9.32;81.51;98623.59;5044688;28;20559;-62
2022/04/07 04:26:20;;;;;;;12.85;3.28;;;;;;;9.35;80.90;98609.34;5043927;28;20036;-62
2022/04/07 04:28:45;;;;;;;12.60;3.45;;;;;;;9.33;81.41;98617.03;5044353;28;20045;-62
2022/04/07 04:31:10;;;;;;;7.03;3.08;;;;;;;9.36;80.75;98615.66;5042919;28;20040;-62
2022/04/07 04:33:35;;;;;;;8.82;3.17;;;;;;;9.43;80.96;98610.72;5043588;28;20037;-64
2022/04/07 04:36:01;;;;;;;8.23;3.03;;;;;;;9.40;80.74;98599.50;5034721;28;20072;-64
2022/04/07 04:38:26;;;;;;;9.93;2.92;;;;;;;9.51;80.09;98610.13;5023777;28;20391;-64
2022/04/07 04:40:51;;;;;;;9.00;2.92;;;;;;;9.47;80.23;98594.53;5023127;28;20040;-64
2022/04/07 04:43:17;;;;;;;8.25;3.10;;;;;;;9.46;80.76;98592.91;5023981;28;20026;-64
2022/04/07 04:45:42;;;;;;;9.63;3.05;;;;;;;9.53;79.76;98596.16;5024417;28;20021;-64
2022/04/07 04:48:07;;;;;;;9.23;2.58;;;;;;;9.52;80.27;98591.78;5024204;28;20083;-64
2022/04/07 04:50:34;;;;;;;7.80;2.67;;;;;;;9.66;79.55;98575.56;5023791;28;20028;-64
2022/04/07 04:52:59;;;;;;;6.28;2.63;;;;;;;9.54;80.99;98568.50;5023615;28;20037;-65
2022/04/07 04:55:24;;;;;;;6.82;2.70;;;;;;;9.44;81.88;98560.31;5023027;28;20186;-64
2022/04/07 04:57:50;;;;;;;7.05;2.05;;;;;;;9.42;82.08;98559.75;5023781;28;20030;-64
2022/04/07 05:00:15;;;;;;;7.25;2.58;;;;;;;9.35;82.98;98560.06;5023425;28;20063;-63
2022/04/07 05:02:41;;;;;;;9.52;2.63;;;;;;;9.38;83.11;98541.41;5024126;28;20052;-65
2022/04/07 05:05:07;;;;;;;7.57;2.10;;;;;;;9.30;83.87;98529.94;5024279;28;20029;-64
2022/04/07 05:07:32;;;;;;;7.40;2.50;;;;;;;9.32;83.69;98510.47;5023669;28;20040;-62
2022/04/07 05:09:58;;;;;;;6.38;2.20;;;;;;;9.30;83.89;98508.03;5042253;28;20029;-62
2022/04/07 05:12:23;;;;;;;5.45;2.28;;;;;;;9.35;84.08;98515.41;5043525;28;20029;-63
2022/04/07 05:14:48;;;;;;;7.90;2.83;;;;;;;9.38;84.07;98508.53;5043320;28;20025;-63
2022/04/07 05:17:14;;;;;;;7.85;2.45;;;;;;;9.29;84.78;98511.06;5043393;28;20529;-63
2022/04/07 05:19:39;;;;;;;7.50;2.30;;;;;;;9.28;85.07;98504.75;5043863;28;20021;-63
2022/04/07 05:22:05;;;;;;;7.38;2.10;;;;;;;9.32;84.96;98500.31;5042772;28;20036;-63
2022/04/07 05:24:30;;;;;;;5.78;2.38;;;;;;;9.38;84.96;98486.63;5042574;28;20255;-63
2022/04/07 05:26:55;;;;;;;6.13;2.47;;;;;;;9.36;84.51;98479.50;5043591;28;20151;-63
2022/04/07 05:29:20;;;;;;;7.38;2.40;;;;;;;9.32;85.10;98488.56;5043038;28;20025;-63
2022/04/07 05:31:46;;;;;;;4.40;2.13;;;;;;;9.30;85.59;98469.66;5042646;28;20096;-63
2022/04/07 05:34:13;;;;;;;4.70;1.95;;;;;;;9.34;85.92;98461.72;5042868;28;20586;-64
2022/04/07 05:36:39;;;;;;;6.30;2.72;;;;;;;9.16;87.73;98460.41;5043422;28;20036;-63
2022/04/07 05:39:05;;;;;;;7.75;2.55;;;;;;;9.03;88.74;98456.38;5043007;28;20024;-63
2022/04/07 05:41:31;;;;;;;7.97;2.80;;;;;;;9.15;88.18;98456.03;5041607;28;20039;-63
2022/04/07 05:43:56;;;;;;;6.53;2.78;;;;;;;9.04;89.02;98443.50;5043270;28;20104;-63
2022/04/07 05:46:21;;;;;;;6.05;3.30;;;;;;;9.08;88.97;98450.06;5042642;28;20033;-63
2022/04/07 05:48:46;;;;;;;5.70;2.85;;;;;;;9.06;89.27;98436.63;5043230;28;20040;-63
2022/04/07 05:51:12;;;;;;;8.10;2.95;;;;;;;8.93;90.61;98430.94;5042068;28;20087;-63
2022/04/07 05:53:37;;;;;;;7.63;2.90;;;;;;;8.95;90.76;98424.09;5043293;28;20025;-63
2022/04/07 05:56:02;;;;;;;11.45;3.38;;;;;;;8.76;92.43;98426.59;5041589;28;20053;-63
2022/04/07 05:58:28;;;;;;;8.07;3.70;;;;;;;8.78;92.23;98410.75;5042738;28;20032;-63
2022/04/07 06:00:53;;;;;;;11.80;3.40;;;;;;;8.79;92.50;98395.94;5042756;28;20017;-63
2022/04/07 06:03:19;;;;;;;8.82;3.83;;;;;;;8.66;93.66;98398.44;5042196;28;20112;-63
2022/04/07 06:05:44;;;;;;;8.82;3.55;;;;;;;8.66;93.65;98392.97;5041553;28;20431;-63
2022/04/07 06:08:09;;;;;;;8.95;3.63;;;;;;;8.62;94.19;98392.72;5042249;28;20029;-63
2022/04/07 06:10:36;;;;;;;9.65;3.83;;;;;;;8.58;94.28;98375.22;5042121;28;20029;-63
2022/04/07 06:13:01;;;;;;;10.38;3.72;;;;;;;8.62;93.82;98368.09;5042371;28;20041;-63
2022/04/07 06:15:28;;;;;;;9.90;3.60;;;;;;;8.66;94.05;98362.88;5042247;28;20024;-63
2022/04/07 06:17:54;;;;;;;11.88;4.47;;;;;;;8.66;93.65;98363.69;5042639;28;20450;-63
2022/04/07 06:20:21;;;;;;;9.60;4.13;;;;;;;8.64;93.42;98352.22;5042278;28;20043;-63
2022/04/07 06:22:46;;;;;;;12.48;4.55;;;;;;;8.60;94.18;98334.72;5042114;28;20025;-63
2022/04/07 06:25:12;;;;;;;12.23;5.10;;;;;;;8.59;94.38;98346.75;5041107;28;20435;-64
2022/04/07 06:27:43;;;;;;;10.75;4.53;;;;;;;8.63;93.96;98345.13;5043147;28;20121;-63
2022/04/07 06:30:11;;;;;;;11.05;4.30;;;;;;;8.64;93.65;98335.00;5042441;28;20028;-63
2022/04/07 06:32:37;;;;;;;;;;;;;;;8.84;92.23;98332.16;5043117;28;20468;-63
2022/04/07 06:35:03;;;;;;;8.82;3.95;;;;;;;8.67;93.57;98316.09;5042060;28;19919;-64
2022/04/07 06:37:28;;;;;;;9.57;4.25;;;;;;;8.67;93.92;98318.00;5037876;28;20380;-63
2022/04/07 06:40:01;;;;;;;9.13;4.22;;;;;;;8.60;94.70;98312.00;5042229;28;20072;-63
2022/04/07 06:42:26;;;;;;;11.73;4.03;;;;;;;8.64;94.21;98304.91;5046119;28;20036;-63
2022/04/07 06:44:54;;;;;;;14.32;5.05;;;;;;;8.64;94.20;98289.28;5046161;28;20025;-63
2022/04/07 06:47:20;;;;;;;;;;;;;;;8.66;93.52;98278.88;5046221;28;20116;-63
2022/04/07 06:49:48;;;;;;;9.07;3.90;;;;;;;8.57;95.01;98264.16;5043970;28;19995;-63
2022/04/07 06:52:14;;;;;;;12.30;3.50;;;;;;;8.57;95.08;98275.09;5024519;28;20305;-64
2022/04/07 06:54:39;;;;;;;9.93;3.72;;;;;;;8.61;95.00;98254.28;5023935;28;20041;-63
2022/04/07 06:57:04;;;;;;;11.98;3.33;;;;;;;8.58;95.72;98246.66;5023766;28;20033;-63
2022/04/07 06:59:29;;;;;;;7.80;3.03;;;;;;;8.73;94.39;98248.47;5024821;28;20365;-63
2022/04/07 07:01:54;;;;;;;10.35;3.38;;;;;;;8.60;95.35;98232.69;5025197;28;20450;-63
2022/04/07 07:04:20;;;;;;;11.00;2.88;;;;;;;8.57;96.17;98215.75;5024378;28;20036;-62
2022/04/07 07:06:45;;;;;;;8.20;2.80;;;;;;;8.60;95.87;98219.00;5024341;28;20022;-63
2022/04/07 07:09:10;;;;;;;9.60;2.80;;;;;;;8.61;95.60;98213.22;5023511;28;20044;-67
2022/04/07 07:11:35;;;;;;;10.50;3.05;;;;;;;8.51;96.17;98226.97;5025652;28;20660;-63
2022/04/07 07:14:01;;;;;;;7.30;2.70;;;;;;;8.45;97.24;98217.16;5024462;28;20053;-63
2022/04/07 07:16:26;;;;;;;8.02;2.58;;;;;;;8.41;97.32;98191.47;5023443;28;20511;-63
2022/04/07 07:18:52;;;;;;;6.80;2.80;;;;;;;8.38;98.01;98187.38;5025136;28;20021;-63
2022/04/07 07:21:18;;;;;;;9.57;2.83;;;;;;;8.39;98.29;98174.53;5039200;28;20728;-63
2022/04/07 07:23:43;;;;;;;11.00;2.63;;;;;;;8.48;97.52;98164.63;5024484;28;20547;-63
2022/04/07 07:26:08;;;;;;;7.80;2.90;;;;;;;8.42;98.33;98172.06;5024007;28;20112;-63
2022/04/07 07:28:33;;;;;;;7.05;2.80;;;;;;;8.45;98.15;98176.13;5024171;28;20395;-63
2022/04/07 07:30:59;;;;;;;8.52;3.90;;;;;;;8.43;99.09;98192.00;5023648;28;20042;-65
2022/04/07 07:33:25;;;;;;;8.15;2.47;;;;;;;8.45;99.75;98239.84;5024135;28;20025;-63
2022/04/07 07:35:50;;;;;;;6.28;1.20;;;;;;;7.91;91.91;98251.50;5024430;28;20184;-63
2022/04/07 07:38:16;;;;;;;6.68;1.20;;;;;;;7.16;93.75;98237.66;5023771;28;20037;-63
2022/04/07 07:40:41;;;;;;;3.58;1.10;;;;;;;6.52;94.35;98250.91;5023223;28;20033;-64
2022/04/07 07:43:06;;;;;;;3.33;1.10;;;;;;;6.11;96.70;98239.84;5024016;28;20029;-63
2022/04/07 07:45:33;;;;;;;3.55;1.55;;;;;;;5.96;98.64;98210.63;5024593;28;20013;-63
2022/04/07 07:47:58;;;;;;;4.75;1.08;;;;;;;5.88;98.34;98246.50;5023675;28;20168;-65
2022/04/07 07:50:24;;;;;;;4.55;1.13;;;;;;;5.82;99.43;98267.44;5024465;28;20393;-63
2022/04/07 07:52:50;;;;;;;4.55;1.20;;;;;;;5.76;98.93;98312.06;5022810;28;20035;-63
2022/04/07 07:55:15;;;;;;;4.40;1.30;;;;;;;5.80;100.00;98321.38;5022823;28;20041;-63
2022/04/07 07:57:41;;;;;;;6.47;1.40;;;;;;;5.82;100.00;98315.66;5039025;28;20654;-64
2022/04/07 08:00:07;;;;;;;6.60;1.52;;;;;;;5.80;100.00;98313.19;5042922;28;20029;-62
2022/04/07 08:02:34;;;;;;;5.68;1.50;;;;;;;5.80;100.00;98298.75;5039778;28;20028;-63
2022/04/07 08:05:03;;;;;;;6.32;1.55;;;;;;;5.79;100.00;98276.16;5044090;28;20596;-64
2022/04/07 08:07:28;;;;;;;6.18;1.65;;;;;;;5.84;100.00;98272.63;5043146;28;20028;-63
2022/04/07 08:09:56;;;;;;;4.97;2.00;;;;;;;5.89;100.00;98272.66;5044362;28;20379;-63
2022/04/07 08:12:22;;;;;;;5.38;1.65;;;;;;;5.96;100.00;98279.53;5043378;28;20037;-63
2022/04/07 08:14:47;;;;;;;4.90;1.77;;;;;;;6.03;100.00;98270.31;5045043;28;20029;-64
2022/04/07 08:17:14;;;;;;;6.10;1.73;;;;;;;6.14;100.00;98266.56;5044728;28;21194;-64
2022/04/07 08:19:40;;;;;;;5.20;1.80;;;;;;;6.19;100.00;98267.41;5045446;28;20258;-65
2022/04/07 08:22:06;;;;;;;5.28;2.30;;;;;;;6.29;100.00;98263.91;5044114;28;20029;-65
2022/04/07 08:24:31;;;;;;;7.68;2.25;;;;;;;6.43;99.67;98275.94;5040026;28;20835;-65
2022/04/07 08:26:56;;;;;;;6.65;2.00;;;;;;;6.59;99.41;98274.13;5043384;28;20093;-66
2022/04/07 08:29:22;;;;;;;8.13;2.70;;;;;;;6.75;98.35;98275.78;5034888;28;20582;-65
2022/04/07 08:31:51;;;;;;;5.85;2.40;;;;;;;6.92;98.39;98266.56;5039991;28;20033;-65
2022/04/07 08:34:17;;;;;;;8.13;2.47;;;;;;;7.07;96.70;98247.47;5034347;28;20017;-66
2022/04/07 08:36:42;;;;;;;5.78;2.35;;;;;;;7.12;97.16;98252.94;5043752;28;20850;-65
2022/04/07 08:39:07;;;;;;;7.22;2.35;;;;;;;7.23;97.05;98257.31;5043389;28;20876;-65
2022/04/07 08:41:34;;;;;;;7.18;3.10;;;;;;;7.76;96.02;98255.09;5044231;28;20025;-65
2022/04/07 08:44:00;;;;;;;7.07;2.25;;;;;;;8.06;93.01;98251.47;5014084;28;20029;-65
2022/04/07 08:46:26;;;;;;;7.38;2.25;;;;;;;8.09;92.30;98257.47;5038862;28;20512;-65
2022/04/07 08:48:55;;;;;;;6.28;2.10;;;;;;;8.06;92.38;98256.13;5042259;28;20025;-64
2022/04/07 08:51:20;;;;;;;8.27;2.10;;;;;;;8.25;91.57;98235.25;5037657;28;20083;-65
2022/04/07 08:53:46;;;;;;;8.20;2.47;;;;;;;8.44;91.90;98232.75;5043154;28;20024;-67
2022/04/07 08:56:12;;;;;;;5.60;2.05;;;;;;;8.82;91.80;98244.06;5042845;28;20551;-65
2022/04/07 08:58:38;;;;;;;4.60;1.60;;;;;;;10.23;85.49;98225.78;5044857;28;20305;-65
2022/04/07 09:01:04;;;;;;;6.22;1.80;;;;;;;10.98;80.77;98242.38;5043583;28;20035;-65
2022/04/07 09:03:29;;;;;;;6.20;2.10;;;;;;;11.17;81.24;98245.13;5041179;28;20071;-65
2022/04/07 09:06:00;;;;;;;5.03;1.20;;;;;;;11.31;79.15;98250.69;5033342;28;20123;-65
2022/04/07 09:08:40;;;;;;;4.30;1.48;;;;;;;10.88;79.95;98257.06;5027555;28;20549;-65
2022/04/07 09:11:10;;;;;;;7.53;1.50;;;;;;;10.49;80.59;98251.84;5025611;28;20418;-65
2022/04/07 09:13:40;;;;;;;7.18;1.52;;;;;;;10.79;80.95;98247.03;5027329;28;20090;-65
2022/04/07 09:16:07;;;;;;;7.55;1.65;;;;;;;12.45;76.21;98244.50;5026035;28;20024;-65
2022/04/07 09:18:37;;;;;;;4.67;1.37;;;;;;;12.75;72.51;98241.41;5032947;28;20032;-64
2022/04/07 09:21:07;;;;;;;5.47;1.67;;;;;;;13.62;72.31;98243.78;5040934;28;20032;-65
2022/04/07 09:23:36;;;;;;;6.93;1.30;;;;;;;14.46;66.48;98240.16;5040102;28;20550;-65
2022/04/07 09:26:03;;;;;;;6.88;1.63;;;;;;;14.38;66.11;98240.94;5036427;28;20067;-65
2022/04/07 09:28:30;;;;;;;9.82;1.70;;;;;;;14.84;64.52;98245.13;5039743;28;20021;-65
2022/04/07 09:30:59;;;;;;;4.43;1.20;;;;;;;14.93;64.47;98258.97;5049710;28;20539;-65
2022/04/07 09:33:28;;;;;;;5.72;1.42;;;;;;;15.41;61.67;98249.72;5030929;28;20432;-65
2022/04/07 09:36:10;;;;;;;5.20;1.35;;;;;;;15.20;63.17;98263.38;5027437;28;20852;-64
2022/04/07 09:38:37;;;;;;;7.13;1.60;;;;;;;14.39;62.63;98252.78;5032156;28;20017;-64
2022/04/07 09:41:08;;;;;;;6.30;1.13;;;;;;;14.54;65.10;98255.94;5041065;28;20419;-65
2022/04/07 09:43:44;;;;;;;6.78;1.42;;;;;;;14.57;64.12;98257.28;5031167;28;20056;-64
2022/04/07 09:46:12;;;;;;;7.03;1.38;;;;;;;14.30;60.96;98258.28;5036719;28;20076;-64
2022/04/07 09:48:38;;;;;;;9.27;1.80;;;;;;;13.89;63.67;98253.88;5034617;28;20082;-64
2022/04/07 09:51:06;;;;;;;6.53;1.25;;;;;;;14.16;62.03;98252.06;5028587;28;20052;-65
2022/04/07 09:53:39;;;;;;;7.78;1.42;;;;;;;14.44;56.77;98233.31;5034215;28;20103;-64
2022/04/07 09:56:07;;;;;;;10.07;2.08;;;;;;;15.22;56.26;98239.00;5028865;28;20240;-64
2022/04/07 09:58:34;;;;;;;5.70;1.42;;;;;;;15.92;57.46;98237.81;5027822;28;20845;-65
2022/04/07 10:01:04;;;;;;;5.78;1.70;;;;;;;16.35;53.60;98245.97;5024035;28;20132;-64
2022/04/07 10:03:30;;;;;;;5.72;1.17;;;;;;;14.81;54.11;98245.00;5036846;28;20024;-64
2022/04/07 10:05:58;;;;;;;6.38;1.63;;;;;;;14.36;57.19;98256.19;5028589;28;20060;-63
2022/04/07 10:08:24;;;;;;;3.83;1.30;;;;;;;14.95;56.61;98257.53;5033424;28;20025;-64
2022/04/07 10:10:49;;;;;;;5.82;1.40;;;;;;;16.05;52.42;98266.44;5037129;28;20037;-64
2022/04/07 10:13:15;;;;;;;7.50;1.40;;;;;;;15.43;50.86;98261.28;5031046;28;20078;-64
2022/04/07 10:15:42;;;;;;;8.25;1.75;;;;;;;14.63;52.98;98250.47;5031998;28;20912;-65
2022/04/07 10:18:20;;;;;;;9.07;1.85;;;;;;;14.96;53.72;98256.41;5034801;28;20044;-63
2022/04/07 10:20:48;;;;;;;5.70;1.60;;;;;;;15.31;51.55;98264.72;5041992;28;20106;-64
2022/04/07 10:23:36;;;;;;;7.18;1.63;;;;;;;16.19;51.29;98269.00;5040692;28;20127;-63
2022/04/07 10:26:03;;;;;;;8.07;1.60;;;;;;;16.60;47.40;98283.00;5042750;28;20041;-64
2022/04/07 10:28:28;;;;;;;7.40;1.50;;;;;;;14.89;49.95;98280.91;5039479;28;20025;-64
2022/04/07 10:30:54;;;;;;;8.40;1.60;;;;;;;14.98;51.97;98284.50;5042948;28;20364;-63
2022/04/07 10:33:37;;;;;;;7.57;1.92;;;;;;;15.42;51.84;98290.09;5041496;28;20479;-64
2022/04/07 10:36:09;;;;;;;7.10;1.90;;;;;;;16.52;49.63;98274.72;5040872;28;20028;-64
2022/04/07 10:38:41;;;;;;;8.73;1.58;;;;;;;15.78;48.84;98295.31;5038821;28;20033;-65
2022/04/07 10:41:07;;;;;;;10.38;1.48;;;;;;;14.17;49.70;98322.69;5040206;28;20029;-64
2022/04/07 10:43:38;;;;;;;7.75;1.58;;;;;;;13.23;51.45;98311.44;5042960;28;20099;-64
2022/04/07 10:46:06;;;;;;;12.93;1.63;;;;;;;12.69;50.87;98315.88;5039839;28;20029;-64
2022/04/07 10:48:33;;;;;;;9.48;2.15;;;;;;;13.75;49.48;98305.53;5044853;28;20113;-63
2022/04/07 10:51:07;;;;;;;10.40;1.58;;;;;;;15.40;48.85;98329.13;5059621;28;20062;-67
2022/04/07 10:53:56;;;;;;;10.18;2.10;;;;;;;15.91;45.17;98335.00;5050593;28;20379;-64
2022/04/07 10:56:35;;;;;;;9.90;1.95;;;;;;;15.33;47.25;98339.88;5035892;28;20403;-64
2022/04/07 10:59:27;;;;;;;9.90;2.00;;;;;;;14.28;50.67;98340.59;5040974;28;20037;-65
2022/04/07 11:01:57;;;;;;;9.25;1.90;;;;;;;14.77;47.51;98336.81;5042006;28;20033;-64
2022/04/07 11:04:23;;;;;;;10.10;1.70;;;;;;;14.15;48.14;98353.38;5042036;28;20036;-65
2022/04/07 11:07:07;;;;;;;8.27;1.93;;;;;;;13.60;50.90;98356.38;5040093;28;20751;-64
2022/04/07 11:09:55;;;;;;;12.13;1.88;;;;;;;12.91;53.43;98356.47;5038083;28;20464;-64
2022/04/07 11:12:20;;;;;;;10.88;2.30;;;;;;;12.52;53.67;98373.50;5042496;28;20064;-64
2022/04/07 11:14:47;;;;;;;11.70;2.00;;;;;;;12.73;53.54;98355.47;5041821;28;20083;-63
2022/04/07 11:17:35;;;;;;;9.50;1.90;;;;;;;13.38;53.16;98343.38;5037646;28;20403;-64
2022/04/07 11:20:19;;;;;;;11.57;2.38;;;;;;;13.11;51.93;98365.44;5042427;28;20033;-64
2022/04/07 11:22:56;;;;;;;8.40;1.85;;;;;;;12.49;53.58;98387.06;5041934;28;20395;-64
2022/04/07 11:25:43;;;;;;;10.52;2.17;;;;;;;11.99;54.04;98364.81;5035643;28;20032;-64
2022/04/07 11:28:12;;;;;;;13.75;3.25;;;;;;;11.57;56.13;98399.53;5025711;28;20033;-63
2022/04/07 11:30:53;;;;;;;11.90;2.20;;;;;;;11.42;57.97;98401.38;5026764;28;20022;-63
2022/04/07 11:33:18;;;;;;;13.68;2.53;;;;;;;10.99;60.07;98395.06;5026544;28;20360;-64
2022/04/07 11:36:04;;;;;;;18.48;3.55;;;;;;;10.87;61.84;98413.91;5025933;28;20040;-64